createdAt,value
2018-02-17T00:01:38.844Z,74.43
2018-02-17T00:04:07.085Z,76.03
2018-02-17T00:06:34.581Z,77.57
2018-02-17T00:09:02.820Z,81.97
2018-02-17T00:11:30.289Z,86.90
2018-02-17T00:13:57.784Z,81.57
2018-02-17T00:16:26.056Z,94.30
2018-02-17T00:18:53.526Z,86.27
2018-02-17T00:21:21.792Z,95.27
2018-02-17T00:23:49.269Z,85.30
2018-02-17T00:26:17.512Z,89.10
2018-02-17T00:28:45.004Z,93.30
2018-02-17T00:31:13.247Z,84.27
2018-02-17T00:33:40.716Z,88.30
2018-02-17T00:36:08.196Z,84.70
2018-02-17T00:38:36.441Z,97.23
2018-02-17T00:41:03.932Z,86.97
2018-02-17T00:43:31.404Z,90.10
2018-02-17T00:45:59.648Z,84.33
2018-02-17T00:48:27.132Z,86.07
2018-02-17T00:50:54.606Z,93.90
2018-02-17T00:53:22.868Z,92.87
2018-02-17T00:55:51.113Z,81.57
2018-02-17T00:58:18.588Z,93.43
2018-02-17T01:00:46.086Z,88.57
2018-02-17T01:03:14.328Z,85.70
2018-02-17T01:05:41.801Z,85.80
2018-02-17T01:08:09.296Z,86.53
2018-02-17T01:10:36.800Z,95.20
2018-02-17T01:13:04.276Z,90.80
2018-02-17T01:15:31.773Z,85.63
2018-02-17T01:17:59.245Z,84.37
2018-02-17T01:20:26.725Z,83.80
2018-02-17T01:22:54.208Z,82.10
2018-02-17T01:25:21.688Z,91.27
2018-02-17T01:27:49.977Z,83.37
2018-02-17T01:30:17.461Z,88.50
2018-02-17T01:32:44.940Z,91.43
2018-02-17T01:35:12.420Z,85.33
2018-02-17T01:37:39.892Z,74.50
2018-02-17T01:40:07.395Z,76.13
2018-02-17T01:42:34.869Z,77.50
2018-02-17T01:45:02.344Z,76.73
2018-02-17T01:47:29.837Z,88.57
2018-02-17T01:49:57.313Z,89.40
2018-02-17T01:52:25.576Z,79.97
2018-02-17T01:54:53.073Z,84.63
2018-02-17T01:57:20.544Z,80.83
2018-02-17T01:59:48.041Z,86.20
2018-02-17T02:02:15.536Z,84.57
2018-02-17T02:04:43.776Z,86.70
2018-02-17T02:07:11.256Z,81.63
2018-02-17T02:09:39.517Z,81.40
2018-02-17T02:12:06.988Z,82.27
2018-02-17T02:14:34.548Z,80.57
2018-02-17T02:17:02.041Z,82.73
2018-02-17T02:19:29.508Z,79.37
2018-02-17T02:21:56.981Z,76.50
2018-02-17T02:24:24.600Z,82.83
2018-02-17T02:26:52.837Z,92.57
2018-02-17T02:29:20.315Z,85.17
2018-02-17T02:31:47.809Z,78.47
2018-02-17T02:34:15.284Z,82.33
2018-02-17T02:36:42.758Z,92.63
2018-02-17T02:39:10.289Z,78.90
2018-02-17T02:41:37.761Z,82.97
2018-02-17T02:44:05.238Z,84.10
2018-02-17T02:46:32.738Z,75.20
2018-02-17T02:49:00.987Z,92.40
2018-02-17T02:51:28.461Z,75.90
2018-02-17T02:53:55.962Z,86.07
2018-02-17T02:56:23.436Z,75.23
2018-02-17T02:58:50.915Z,82.23
2018-02-17T03:01:18.409Z,87.47
2018-02-17T03:03:45.886Z,78.87
2018-02-17T03:06:13.376Z,78.70
2018-02-17T03:08:40.860Z,75.13
2018-02-17T03:11:08.336Z,76.70
2018-02-17T03:13:35.917Z,68.27
2018-02-17T03:16:04.173Z,79.53
2018-02-17T03:18:31.649Z,76.60
2018-02-17T03:20:59.888Z,74.73
2018-02-17T03:23:27.380Z,78.83
2018-02-17T03:25:55.629Z,79.43
2018-02-17T03:28:23.109Z,88.10
2018-02-17T03:30:50.622Z,77.20
2018-02-17T03:33:18.096Z,89.43
2018-02-17T03:35:45.597Z,78.67
2018-02-17T03:38:13.844Z,78.50
2018-02-17T03:40:41.316Z,81.37
2018-02-17T03:43:08.788Z,77.63
2018-02-17T03:45:37.049Z,83.50
2018-02-17T03:48:04.532Z,85.63
2018-02-17T03:50:32.796Z,85.80
2018-02-17T03:53:00.295Z,78.20
2018-02-17T03:55:27.817Z,81.73
2018-02-17T03:57:56.056Z,89.60
2018-02-17T04:00:23.553Z,78.40
2018-02-17T04:02:51.797Z,80.23
2018-02-17T04:05:19.271Z,86.23
2018-02-17T04:07:46.765Z,81.87
2018-02-17T04:10:14.237Z,86.60
2018-02-17T04:12:41.712Z,73.97
2018-02-17T04:15:09.204Z,86.90
2018-02-17T04:17:36.681Z,84.47
2018-02-17T04:20:04.924Z,89.90
2018-02-17T04:22:32.417Z,81.07
2018-02-17T04:25:00.688Z,86.40
2018-02-17T04:27:28.160Z,85.60
2018-02-17T04:29:56.416Z,77.93
2018-02-17T04:32:23.891Z,87.90
2018-02-17T04:34:52.132Z,82.20
2018-02-17T04:37:19.621Z,90.63
2018-02-17T04:42:56.635Z,72.10
2018-02-17T04:45:24.392Z,80.10
2018-02-17T04:48:09.528Z,75.93
2018-02-17T04:50:38.124Z,87.27
2018-02-17T04:53:05.810Z,98.40
2018-02-17T04:55:51.029Z,79.33
2018-02-17T04:58:35.400Z,80.67
2018-02-17T05:01:08.766Z,90.90
2018-02-17T05:03:51.120Z,87.43
2018-02-17T05:06:38.849Z,91.63
2018-02-17T05:09:06.317Z,93.33
2018-02-17T05:11:33.956Z,103.57
2018-02-17T05:14:01.649Z,95.50
2018-02-17T05:16:49.269Z,98.50
2018-02-17T05:19:19.229Z,103.43
2018-02-17T05:21:57.762Z,124.23
2018-02-17T05:24:31.327Z,128.50
2018-02-17T05:27:02.828Z,119.03
2018-02-17T05:29:31.257Z,125.37
2018-02-17T05:32:08.626Z,115.87
2018-02-17T05:34:41.617Z,120.67
2018-02-17T05:37:09.571Z,117.90
2018-02-17T05:39:52.325Z,121.40
2018-02-17T05:42:21.509Z,84.40
2018-02-17T05:44:53.540Z,107.13
2018-02-17T05:47:26.585Z,102.10
2018-02-17T05:50:04.752Z,102.07
2018-02-17T05:52:32.889Z,92.17
2018-02-17T05:55:00.613Z,113.63
2018-02-17T05:57:28.452Z,104.70
2018-02-17T05:59:56.008Z,101.83
2018-02-17T06:02:23.868Z,109.57
2018-02-17T06:04:51.820Z,90.67
2018-02-17T06:07:19.584Z,96.67
2018-02-17T06:09:47.771Z,92.30
2018-02-17T06:12:15.665Z,98.27
2018-02-17T06:14:43.140Z,91.87
2018-02-17T06:17:10.616Z,88.83
2018-02-17T06:19:38.875Z,97.80
2018-02-17T06:22:06.359Z,109.50
2018-02-17T06:24:34.595Z,97.80
2018-02-17T06:27:02.082Z,100.83
2018-02-17T06:29:30.320Z,118.37
2018-02-17T06:31:57.801Z,106.43
2018-02-17T06:34:25.294Z,88.40
2018-02-17T06:36:52.828Z,96.27
2018-02-17T06:39:21.064Z,92.00
2018-02-17T06:41:48.552Z,97.40
2018-02-17T06:44:16.032Z,91.43
2018-02-17T06:46:44.268Z,96.90
2018-02-17T06:49:11.759Z,85.80
2018-02-17T06:51:39.993Z,90.67
2018-02-17T06:54:07.465Z,97.63
2018-02-17T06:56:34.960Z,101.50
2018-02-17T06:59:03.229Z,102.77
2018-02-17T07:01:31.500Z,100.23
2018-02-17T07:03:58.996Z,104.80
2018-02-17T07:06:26.467Z,115.27
2018-02-17T07:08:53.983Z,107.97
2018-02-17T07:11:22.249Z,108.50
2018-02-17T07:13:49.829Z,106.80
2018-02-17T07:16:18.068Z,127.87
2018-02-17T07:18:45.560Z,104.17
2018-02-17T07:21:13.804Z,102.23
2018-02-17T07:23:41.272Z,95.40
2018-02-17T07:26:08.766Z,96.27
2018-02-17T07:28:37.044Z,96.40
2018-02-17T07:31:05.280Z,109.70
2018-02-17T07:33:32.860Z,100.30
2018-02-17T07:36:01.848Z,102.33
2018-02-17T07:38:29.321Z,102.67
2018-02-17T07:40:57.577Z,100.70
2018-02-17T07:43:25.054Z,99.63
2018-02-17T07:45:53.301Z,117.57
2018-02-17T07:48:20.792Z,102.90
2018-02-17T07:50:49.028Z,126.13
2018-02-17T07:53:16.501Z,113.47
2018-02-17T07:55:43.996Z,121.77
2018-02-17T07:58:12.236Z,109.27
2018-02-17T08:00:39.711Z,110.87
2018-02-17T08:03:07.196Z,112.57
2018-02-17T08:05:35.442Z,117.90
2018-02-17T08:08:02.922Z,116.90
2018-02-17T08:10:31.183Z,113.80
2018-02-17T08:12:58.687Z,119.47
2018-02-17T08:15:26.184Z,119.13
2018-02-17T08:17:53.668Z,123.00
2018-02-17T08:20:21.910Z,113.73
2018-02-17T08:22:49.384Z,125.03
2018-02-17T08:25:16.904Z,134.90
2018-02-17T08:27:44.377Z,128.50
2018-02-17T08:30:11.856Z,142.60
2018-02-17T08:32:39.437Z,139.57
2018-02-17T08:35:06.908Z,133.93
2018-02-17T08:37:35.149Z,120.87
2018-02-17T08:40:02.642Z,119.60
2018-02-17T08:42:30.880Z,121.50
2018-02-17T08:44:58.353Z,129.17
2018-02-17T08:47:25.849Z,129.17
2018-02-17T08:49:53.324Z,137.70
2018-02-17T08:52:20.801Z,144.17
2018-02-17T08:54:48.289Z,144.47
2018-02-17T08:57:15.778Z,143.23
2018-02-17T08:59:44.016Z,146.13
2018-02-17T09:02:11.502Z,157.00
2018-02-17T09:04:39.750Z,144.60
2018-02-17T09:07:07.244Z,155.97
2018-02-17T09:09:35.494Z,157.20
2018-02-17T09:12:02.977Z,161.47
2018-02-17T09:14:31.242Z,163.80
2018-02-17T09:16:58.809Z,153.10
2018-02-17T09:19:27.058Z,145.07
2018-02-17T09:21:54.553Z,157.87
2018-02-17T09:24:22.792Z,154.53
2018-02-17T09:26:50.269Z,162.93
2018-02-17T09:29:17.756Z,159.10
2018-02-17T09:31:45.991Z,156.47
2018-02-17T09:34:13.489Z,156.57
2018-02-17T09:36:41.728Z,159.43
2018-02-17T09:39:09.199Z,164.43
2018-02-17T09:41:36.684Z,165.90
2018-02-17T09:44:04.921Z,145.80
2018-02-17T09:46:32.397Z,152.37
2018-02-17T09:48:59.877Z,163.33
2018-02-17T09:51:28.119Z,174.07
2018-02-17T09:53:55.684Z,156.57
2018-02-17T09:56:23.177Z,155.30
2018-02-17T09:58:51.418Z,169.23
2018-02-17T10:01:18.889Z,164.57
2018-02-17T10:03:46.377Z,169.50
2018-02-17T10:06:13.868Z,175.50
2018-02-17T10:08:41.373Z,173.20
2018-02-17T10:11:09.620Z,170.13
2018-02-17T10:13:37.093Z,158.07
2018-02-17T10:16:04.581Z,164.33
2018-02-17T10:18:32.058Z,173.77
2018-02-17T10:20:59.556Z,165.90
2018-02-17T10:23:27.038Z,168.53
2018-02-17T10:25:54.517Z,181.03
2018-02-17T10:28:22.772Z,177.87
2018-02-17T10:30:51.019Z,164.80
2018-02-17T10:33:18.512Z,160.93
2018-02-17T10:35:46.758Z,163.50
2018-02-17T10:38:14.229Z,178.23
2018-02-17T10:40:42.490Z,195.47
2018-02-17T10:43:09.980Z,187.00
2018-02-17T10:45:38.233Z,189.67
2018-02-17T10:48:05.729Z,195.43
2018-02-17T10:50:34.018Z,182.70
2018-02-17T10:53:02.244Z,185.57
2018-02-17T10:55:35.544Z,187.33
2018-02-17T10:58:03.021Z,173.97
2018-02-17T11:00:30.621Z,182.33
2018-02-17T11:02:58.124Z,197.37
2018-02-17T11:05:25.601Z,192.23
2018-02-17T11:07:53.080Z,194.97
2018-02-17T11:10:21.344Z,189.60
2018-02-17T11:12:49.585Z,187.23
2018-02-17T11:15:17.061Z,183.00
2018-02-17T11:17:44.552Z,214.80
2018-02-17T11:20:12.796Z,208.90
2018-02-17T11:22:40.275Z,195.73
2018-02-17T11:25:08.536Z,206.77
2018-02-17T11:27:36.008Z,204.70
2018-02-17T11:30:04.258Z,189.40
2018-02-17T11:32:31.744Z,182.40
2018-02-17T11:35:00.020Z,199.00
2018-02-17T11:37:27.504Z,213.77
2018-02-17T11:39:55.036Z,205.40
2018-02-17T11:42:22.513Z,200.23
2018-02-17T11:44:50.789Z,203.50
2018-02-17T11:47:19.033Z,183.43
2018-02-17T11:49:46.541Z,199.80
2018-02-17T11:52:14.017Z,196.77
2018-02-17T11:54:41.497Z,199.17
2018-02-17T11:57:08.999Z,201.93
2018-02-17T11:59:37.244Z,198.53
2018-02-17T12:02:04.920Z,186.23
2018-02-17T12:04:32.427Z,189.20
2018-02-17T12:06:59.909Z,186.67
2018-02-17T12:09:27.406Z,198.13
2018-02-17T12:11:55.653Z,196.73
2018-02-17T12:14:23.136Z,188.33
2018-02-17T12:16:51.408Z,199.33
2018-02-17T12:19:18.901Z,198.77
2018-02-17T12:21:46.372Z,203.00
2018-02-17T12:24:13.901Z,207.00
2018-02-17T12:26:42.202Z,215.53
2018-02-17T12:29:09.643Z,224.77
2018-02-17T12:31:37.908Z,216.70
2018-02-17T12:34:06.158Z,209.40
2018-02-17T12:36:33.641Z,221.53
2018-02-17T12:39:01.924Z,213.23
2018-02-17T12:41:30.193Z,200.13
2018-02-17T12:43:57.696Z,204.93
2018-02-17T12:46:25.193Z,207.57
2018-02-17T12:48:52.668Z,208.30
2018-02-17T12:51:20.921Z,206.77
2018-02-17T12:53:48.428Z,223.80
2018-02-17T12:56:16.672Z,216.93
2018-02-17T12:58:44.155Z,216.37
2018-02-17T13:01:12.440Z,212.87
2018-02-17T13:03:40.693Z,214.90
2018-02-17T13:06:08.964Z,204.03
2018-02-17T13:08:36.456Z,204.57
2018-02-17T13:11:04.728Z,214.77
2018-02-17T13:13:33.033Z,210.60
2018-02-17T13:16:00.518Z,216.13
2018-02-17T13:18:27.996Z,213.77
2018-02-17T13:20:55.473Z,207.97
2018-02-17T13:23:23.893Z,209.40
2018-02-17T13:25:51.383Z,192.23
2018-02-17T13:28:24.926Z,210.20
2018-02-17T13:30:53.198Z,190.40
2018-02-17T13:33:20.850Z,214.40
2018-02-17T13:35:49.132Z,190.53
2018-02-17T13:38:17.380Z,191.23
2018-02-17T13:40:44.869Z,189.03
2018-02-17T13:43:13.373Z,196.50
2018-02-17T13:45:41.062Z,189.30
2018-02-17T13:48:08.546Z,182.83
2018-02-17T13:50:36.049Z,177.13
2018-02-17T13:53:03.584Z,183.57
2018-02-17T13:55:31.074Z,186.70
2018-02-17T13:57:58.891Z,189.23
2018-02-17T14:00:26.369Z,180.27
2018-02-17T14:02:54.720Z,176.63
2018-02-17T14:05:22.253Z,184.83
2018-02-17T14:07:49.808Z,183.03
2018-02-17T14:10:17.364Z,199.67
2018-02-17T14:12:44.936Z,199.63
2018-02-17T14:15:12.441Z,199.37
2018-02-17T14:17:40.050Z,190.50
2018-02-17T14:20:07.542Z,180.63
2018-02-17T14:22:35.072Z,183.93
2018-02-17T14:25:02.579Z,177.47
2018-02-17T14:27:30.138Z,179.93
2018-02-17T14:29:57.604Z,168.17
2018-02-17T14:32:25.212Z,176.90
2018-02-17T14:34:52.838Z,170.90
2018-02-17T14:37:21.142Z,172.03
2018-02-17T14:39:48.672Z,178.27
2018-02-17T14:42:16.936Z,166.13
2018-02-17T14:44:44.437Z,187.47
2018-02-17T14:47:12.006Z,170.40
2018-02-17T14:49:39.485Z,156.63
2018-02-17T14:52:06.969Z,168.27
2018-02-17T14:54:34.589Z,157.60
2018-02-17T14:57:02.095Z,159.07
2018-02-17T14:59:30.565Z,171.43
2018-02-17T15:01:58.056Z,154.43
2018-02-17T15:04:26.304Z,174.57
2018-02-17T15:06:53.806Z,177.77
2018-02-17T15:09:22.060Z,172.53
2018-02-17T15:11:50.404Z,177.33
2018-02-17T15:14:18.012Z,175.33
2018-02-17T15:16:45.587Z,174.77
2018-02-17T15:19:13.231Z,160.40
2018-02-17T15:21:41.506Z,164.37
2018-02-17T15:24:09.758Z,168.57
2018-02-17T15:26:37.393Z,160.10
2018-02-17T15:29:05.096Z,156.80
2018-02-17T15:31:32.780Z,159.53
2018-02-17T15:34:01.332Z,154.60
2018-02-17T15:36:28.808Z,146.97
2018-02-17T15:38:56.326Z,143.87
2018-02-17T15:41:23.805Z,162.97
2018-02-17T15:43:51.280Z,165.70
2018-02-17T15:46:19.055Z,164.20
2018-02-17T15:48:46.551Z,174.03
2018-02-17T15:51:14.040Z,184.57
2018-02-17T15:53:41.644Z,184.53
2018-02-17T15:56:10.031Z,178.27
2018-02-17T15:58:38.458Z,186.20
2018-02-17T16:01:06.093Z,189.80
2018-02-17T16:03:33.620Z,189.20
2018-02-17T16:06:01.887Z,193.20
2018-02-17T16:08:29.421Z,190.77
2018-02-17T16:10:57.049Z,195.60
2018-02-17T16:13:24.640Z,175.03
2018-02-17T16:15:52.240Z,178.30
2018-02-17T16:18:20.546Z,167.77
2018-02-17T16:20:48.248Z,172.70
2018-02-17T16:23:15.849Z,157.23
2018-02-17T16:25:44.256Z,156.33
2018-02-17T16:28:11.782Z,148.30
2018-02-17T16:30:39.318Z,149.83
2018-02-17T16:33:06.881Z,159.73
2018-02-17T16:35:34.421Z,149.53
2018-02-17T16:38:02.028Z,145.30
2018-02-17T16:40:30.423Z,137.37
2018-02-17T16:42:58.779Z,144.97
2018-02-17T16:45:26.339Z,150.03
2018-02-17T16:47:54.748Z,160.50
2018-02-17T16:50:23.012Z,161.53
2018-02-17T16:52:51.397Z,135.70
2018-02-17T16:55:19.808Z,139.50
2018-02-17T16:57:47.316Z,130.20
2018-02-17T17:00:14.790Z,149.80
2018-02-17T17:02:43.102Z,134.37
2018-02-17T17:05:10.641Z,123.73
2018-02-17T17:07:39.069Z,131.53
2018-02-17T17:10:06.548Z,114.47
2018-02-17T17:12:34.813Z,120.07
2018-02-17T17:15:02.318Z,133.50
2018-02-17T17:17:30.544Z,93.33
2018-02-17T17:19:58.153Z,107.13
2018-02-17T17:22:25.639Z,101.53
2018-02-17T17:24:53.132Z,109.33
2018-02-17T17:27:20.758Z,98.73
2018-02-17T17:29:48.535Z,98.03
2018-02-17T17:32:16.009Z,90.33
2018-02-17T17:34:43.821Z,96.10
2018-02-17T17:37:12.063Z,90.00
2018-02-17T17:39:39.549Z,92.27
2018-02-17T17:42:08.536Z,83.93
2018-02-17T17:44:36.768Z,87.80
2018-02-17T17:47:04.372Z,85.57
2018-02-17T17:49:33.132Z,70.80
2018-02-17T17:52:00.606Z,78.20
2018-02-17T17:54:28.080Z,87.07
2018-02-17T17:56:56.353Z,88.83
2018-02-17T17:59:24.656Z,92.73
2018-02-17T18:01:52.955Z,83.93
2018-02-17T18:04:20.486Z,88.30
2018-02-17T18:06:48.864Z,89.70
2018-02-17T18:09:17.126Z,84.43
2018-02-17T18:11:44.664Z,90.57
2018-02-17T18:14:12.152Z,88.97
2018-02-17T18:16:40.508Z,88.13
2018-02-17T18:19:07.980Z,80.77
2018-02-17T18:21:35.793Z,84.50
2018-02-17T18:24:03.316Z,85.00
2018-02-17T18:26:31.584Z,79.90
2018-02-17T18:28:59.157Z,93.33
2018-02-17T18:31:27.413Z,83.67
2018-02-17T18:33:54.886Z,84.53
2018-02-17T18:36:23.160Z,87.87
2018-02-17T18:38:57.745Z,84.13
2018-02-17T18:41:26.756Z,82.57
2018-02-17T18:43:54.456Z,84.30
2018-02-17T18:46:22.808Z,80.00
2018-02-17T18:48:50.581Z,79.80
2018-02-17T18:51:18.052Z,76.50
2018-02-17T18:53:45.525Z,86.97
2018-02-17T18:56:13.780Z,83.03
2018-02-17T18:58:41.334Z,85.83
2018-02-17T19:01:09.468Z,83.60
2018-02-17T19:03:37.176Z,90.03
2018-02-17T19:06:04.891Z,84.60
2018-02-17T19:08:32.409Z,101.73
2018-02-17T19:11:00.677Z,78.20
2018-02-17T19:13:28.207Z,87.07
2018-02-17T19:15:55.724Z,79.17
2018-02-17T19:18:23.973Z,77.33
2018-02-17T19:20:52.144Z,78.40
2018-02-17T19:23:19.832Z,82.77
2018-02-17T19:25:48.598Z,75.93
2018-02-17T19:28:16.341Z,75.93
2018-02-17T19:30:44.134Z,82.00
2018-02-17T19:33:12.629Z,84.57
2018-02-17T19:35:40.884Z,92.37
2018-02-17T19:38:08.544Z,86.30
2018-02-17T19:40:36.012Z,92.57
2018-02-17T19:43:03.566Z,80.40
2018-02-17T19:45:31.037Z,85.37
2018-02-17T19:47:58.516Z,82.40
2018-02-17T19:50:26.784Z,92.70
2018-02-17T19:52:55.036Z,92.10
2018-02-17T19:55:22.517Z,87.83
2018-02-17T19:57:55.768Z,77.93
2018-02-17T20:00:23.365Z,90.87
2018-02-17T20:02:50.861Z,82.50
2018-02-17T20:05:18.389Z,86.20
2018-02-17T20:07:46.648Z,90.63
2018-02-17T20:10:14.140Z,81.77
2018-02-17T20:12:42.401Z,88.27
2018-02-17T20:15:10.644Z,85.53
2018-02-17T20:17:38.178Z,81.80
2018-02-17T20:20:05.843Z,86.03
2018-02-17T20:22:33.325Z,86.53
2018-02-17T20:25:00.800Z,95.97
2018-02-17T20:27:28.421Z,91.87
2018-02-17T20:29:55.928Z,100.60
2018-02-17T20:32:23.408Z,84.77
2018-02-17T20:34:51.672Z,96.30
2018-02-17T20:37:19.994Z,85.27
2018-02-17T20:39:47.478Z,90.80
2018-02-17T20:42:15.040Z,93.73
2018-02-17T20:44:42.516Z,95.83
2018-02-17T20:47:10.807Z,96.43
2018-02-17T20:49:39.085Z,93.47
2018-02-17T20:52:06.615Z,93.77
2018-02-17T20:54:34.182Z,91.80
2018-02-17T20:57:01.688Z,95.87
2018-02-17T20:59:29.179Z,89.77
2018-02-17T21:01:56.723Z,91.93
2018-02-17T21:04:24.290Z,88.63
2018-02-17T21:06:51.836Z,115.87
2018-02-17T21:09:19.332Z,97.70
2018-02-17T21:11:46.970Z,91.73
2018-02-17T21:14:14.522Z,102.00
2018-02-17T21:16:42.094Z,101.30
2018-02-17T21:19:09.595Z,90.60
2018-02-17T21:21:37.082Z,98.70
2018-02-17T21:24:05.328Z,101.30
2018-02-17T21:26:33.008Z,104.60
2018-02-17T21:29:01.314Z,102.70
2018-02-17T21:31:28.888Z,111.50
2018-02-17T21:33:56.414Z,122.20
2018-02-17T21:36:23.906Z,111.20
2018-02-17T21:38:51.407Z,115.00
2018-02-17T21:41:18.932Z,117.47
2018-02-17T21:43:46.441Z,129.17
2018-02-17T21:46:13.921Z,123.80
2018-02-17T21:48:41.439Z,139.10
2018-02-17T21:51:08.956Z,131.70
2018-02-17T21:53:36.428Z,116.73
2018-02-17T21:56:03.921Z,115.83
2018-02-17T21:58:31.412Z,118.50
2018-02-17T22:00:59.656Z,108.73
2018-02-17T22:03:27.156Z,112.23
2018-02-17T22:05:55.442Z,114.40
2018-02-17T22:08:23.656Z,110.50
2018-02-17T22:10:51.151Z,111.17
2018-02-17T22:13:19.408Z,120.60
2018-02-17T22:15:46.891Z,110.47
2018-02-17T22:18:15.144Z,108.47
2018-02-17T22:20:42.628Z,102.53
2018-02-17T22:23:10.901Z,117.40
2018-02-17T22:25:39.153Z,98.67
2018-02-17T22:28:06.637Z,113.63
2018-02-17T22:30:34.908Z,125.27
2018-02-17T22:33:03.185Z,111.27
2018-02-17T22:35:31.479Z,111.60
2018-02-17T22:37:59.762Z,110.00
2018-02-17T22:40:27.238Z,100.70
2018-02-17T22:42:54.716Z,115.90
2018-02-17T22:45:22.216Z,126.67
2018-02-17T22:47:49.693Z,111.87
2018-02-17T22:50:17.945Z,119.63
2018-02-17T22:52:46.128Z,114.80
2018-02-17T22:55:14.404Z,112.43
2018-02-17T22:57:41.878Z,142.83
2018-02-17T23:00:10.345Z,114.70
2018-02-17T23:02:43.529Z,140.70
2018-02-17T23:05:19.056Z,131.23
2018-02-17T23:07:47.843Z,128.10
2018-02-17T23:10:15.493Z,124.80
2018-02-17T23:12:42.996Z,119.67
2018-02-17T23:15:10.703Z,122.17
2018-02-17T23:17:38.480Z,121.70
2018-02-17T23:20:06.385Z,118.43
2018-02-17T23:22:34.145Z,117.63
2018-02-17T23:25:01.966Z,118.17
2018-02-17T23:27:29.559Z,126.07
2018-02-17T23:29:58.012Z,128.67
2018-02-17T23:32:25.674Z,118.43
2018-02-17T23:34:53.201Z,120.70
2018-02-17T23:37:21.473Z,128.73
2018-02-17T23:39:49.744Z,109.10
2018-02-17T23:42:17.512Z,119.97
2018-02-17T23:44:45.219Z,121.87
2018-02-17T23:47:12.741Z,119.57
2018-02-17T23:49:41.005Z,114.10
2018-02-17T23:52:08.480Z,114.50
2018-02-17T23:54:36.724Z,108.03
2018-02-17T23:57:04.229Z,116.13
2018-02-17T23:59:31.824Z,110.17
